Arnesen, Minnesota
Current Conditions -  °F | °C
As of 8:34 PM on Tuesday 21 Oct 2014 (Local Time) from KRRT Reporting Station
Clear Clear  
Wind Chill: 50°   Ceiling: Unl
Heat Index: 50°   Visibility: 10mi
Dew Point: 39°   Wind: 14mph
Humidity: 66%   Direction: 150°SSE
Pressure: 29.96"   Gusts: 20mph
Location:  48.6345°N, 95.1786°W
Report Text: KRRT 220134Z AUTO 15012G17KT 10SM CLR 10/04 A2996 RMK AO2
Loading
Personal Weather Stations






























Interactive Weather Map
Tropical Storm Tracking
New forecast layout! Learn more

10-Day Weather Forecast

Advertisements
Track Severe Weather on mobile